Time;durP1;ratioP1;P1;durP2;ratioP2;P2;SDS_P1;SDS_P2;PMS_P1;PMS_P2;Temp;Humidity;BMP_temperature;BMP_pressure;BME280_temperature;BME280_humidity;BME280_pressure;Samples;Min_cycle;Max_cycle;Signal;HPM_P1;HPM_P2
2023/04/29 00:01:17;;;;;;;28.50;16.38;;;;;;;11.38;100.00;100072.97;6302259;28;20045;-90
2023/04/29 00:04:18;;;;;;;29.40;16.42;;;;;;;11.38;100.00;100070.38;6293489;28;20151;-90
2023/04/29 00:07:21;;;;;;;30.77;16.13;;;;;;;11.33;100.00;100064.78;6304579;28;20071;-89
2023/04/29 00:10:22;;;;;;;32.58;17.25;;;;;;;11.26;100.00;100074.06;6308099;28;20052;-89
2023/04/29 00:13:25;;;;;;;32.00;17.63;;;;;;;11.27;100.00;100067.09;6307249;28;20129;-89
2023/04/29 00:16:26;;;;;;;38.03;18.55;;;;;;;11.25;100.00;100067.22;6288424;28;20284;-89
2023/04/29 00:19:28;;;;;;;34.45;19.35;;;;;;;11.21;100.00;100068.47;6294714;28;20040;-89
2023/04/29 00:22:30;;;;;;;35.35;18.33;;;;;;;11.19;100.00;100067.78;6302682;28;20037;-89
2023/04/29 00:25:32;;;;;;;39.38;19.40;;;;;;;11.19;100.00;100065.19;6305699;28;20332;-89
2023/04/29 00:28:33;;;;;;;36.45;20.42;;;;;;;11.19;100.00;100075.56;6312810;28;20048;-89
2023/04/29 00:31:36;;;;;;;41.92;21.33;;;;;;;11.19;100.00;100071.19;6302738;28;20189;-89
2023/04/29 00:34:38;;;;;;;41.00;21.33;;;;;;;11.20;100.00;100079.78;6294199;28;20052;-90
2023/04/29 00:37:40;;;;;;;41.05;20.45;;;;;;;11.20;100.00;100079.78;6294798;28;20036;-89
2023/04/29 00:40:43;;;;;;;39.85;19.75;;;;;;;11.16;100.00;100086.19;6286661;28;20040;-90
2023/04/29 00:43:45;;;;;;;39.80;18.98;;;;;;;11.17;100.00;100091.22;6294079;28;20257;-89
2023/04/29 00:46:46;;;;;;;39.25;20.40;;;;;;;11.14;100.00;100088.09;6278482;28;20045;-89
2023/04/29 00:49:50;;;;;;;41.58;19.98;;;;;;;11.15;100.00;100084.53;6277308;28;20081;-89
2023/04/29 00:52:52;;;;;;;39.92;20.70;;;;;;;11.12;100.00;100085.63;6297384;28;20040;-89
2023/04/29 00:55:55;;;;;;;37.95;19.50;;;;;;;11.09;100.00;100090.28;6267839;28;20053;-89
2023/04/29 00:58:57;;;;;;;40.63;20.67;;;;;;;11.09;100.00;100103.22;6284173;28;20052;-89
2023/04/29 01:02:03;;;;;;;39.88;20.77;;;;;;;11.05;100.00;100104.44;6294339;28;20036;-89
2023/04/29 01:05:05;;;;;;;40.50;20.55;;;;;;;11.03;100.00;100114.13;6293629;28;20040;-89
2023/04/29 01:08:46;;;;;;;40.80;21.15;;;;;;;11.01;100.00;100101.31;6287143;28;20057;-89
2023/04/29 01:12:12;;;;;;;41.25;19.67;;;;;;;10.97;100.00;100111.09;6288274;28;20625;-90
2023/04/29 01:15:25;;;;;;;43.25;22.40;;;;;;;10.93;100.00;100121.88;6278187;28;20139;-89
2023/04/29 01:18:33;;;;;;;45.92;21.30;;;;;;;10.87;100.00;100128.41;6288446;28;20494;-90
2023/04/29 01:21:47;;;;;;;44.42;22.10;;;;;;;10.81;100.00;100128.94;6286476;28;20084;-90
2023/04/29 01:24:50;;;;;;;48.08;23.27;;;;;;;10.77;100.00;100133.56;6284366;28;20515;-91
2023/04/29 01:28:19;;;;;;;46.75;22.55;;;;;;;10.75;100.00;100134.63;6288474;28;20051;-90
2023/04/29 01:31:37;;;;;;;45.22;21.67;;;;;;;10.63;100.00;100133.09;6282975;28;20127;-90
2023/04/29 01:35:19;;;;;;;46.50;21.70;;;;;;;10.63;100.00;100146.03;6282524;28;20036;-90
2023/04/29 01:39:01;;;;;;;44.58;20.75;;;;;;;10.65;100.00;100152.72;6278614;28;20091;-90
2023/04/29 01:42:44;;;;;;;45.28;21.95;;;;;;;10.51;100.00;100143.56;6284151;28;20369;-90
2023/04/29 01:45:50;;;;;;;42.50;20.95;;;;;;;10.46;100.00;100152.63;6279570;28;20139;-89
2023/04/29 01:48:53;;;;;;;43.05;21.48;;;;;;;10.43;100.00;100152.91;6284588;28;20142;-90
2023/04/29 01:51:55;;;;;;;40.83;19.23;;;;;;;10.40;100.00;100159.16;6282651;28;20170;-90
2023/04/29 01:54:58;;;;;;;45.33;21.02;;;;;;;10.35;100.00;100176.84;6285721;28;20040;-90
2023/04/29 01:58:06;;;;;;;42.17;19.15;;;;;;;10.38;100.00;100168.00;6286798;28;20060;-89
2023/04/29 02:01:26;;;;;;;36.88;18.35;;;;;;;10.34;100.00;100168.25;6287192;28;20044;-90
2023/04/29 02:04:28;;;;;;;39.45;18.33;;;;;;;10.28;100.00;100173.13;6275481;28;20052;-89
2023/04/29 02:07:30;;;;;;;35.38;18.05;;;;;;;10.24;100.00;100177.72;6293044;28;20123;-89
2023/04/29 02:10:32;;;;;;;37.67;18.55;;;;;;;10.25;100.00;100188.88;6285663;28;20051;-89
2023/04/29 02:13:48;;;;;;;30.27;16.88;;;;;;;10.24;100.00;100185.47;6268604;28;20048;-92
2023/04/29 02:16:50;;;;;;;31.55;16.65;;;;;;;10.25;100.00;100187.09;6271010;28;20036;-90
2023/04/29 02:19:53;;;;;;;32.03;17.45;;;;;;;10.21;100.00;100188.31;6285841;28;20522;-90
2023/04/29 02:22:56;;;;;;;31.65;15.68;;;;;;;10.16;100.00;100194.78;6266432;28;20040;-90
2023/04/29 02:25:58;;;;;;;32.30;16.73;;;;;;;10.16;100.00;100203.41;6271039;28;20057;-90
2023/04/29 02:28:59;;;;;;;30.50;14.77;;;;;;;10.13;100.00;100209.63;6282652;28;20041;-92
2023/04/29 02:32:01;;;;;;;36.20;16.77;;;;;;;10.10;100.00;100207.28;6250327;28;20067;-90
2023/04/29 02:35:03;;;;;;;33.67;15.32;;;;;;;10.13;100.00;100217.38;6268695;28;20135;-90
2023/04/29 02:38:05;;;;;;;33.92;16.38;;;;;;;10.09;100.00;100218.59;6285733;28;20040;-92
2023/04/29 02:41:16;;;;;;;31.80;16.27;;;;;;;10.10;100.00;100230.56;6284526;28;20469;-90
2023/04/29 02:44:18;;;;;;;32.53;15.43;;;;;;;10.06;100.00;100236.94;6273985;28;20063;-91
2023/04/29 02:47:20;;;;;;;32.10;16.17;;;;;;;10.13;100.00;100238.06;6282312;28;20115;-91
2023/04/29 02:50:24;;;;;;;32.15;17.88;;;;;;;10.17;100.00;100251.59;6280691;28;20375;-92
2023/04/29 02:53:26;;;;;;;36.25;19.05;;;;;;;10.08;100.00;100250.56;6286297;28;20067;-92
2023/04/29 02:56:28;;;;;;;32.53;17.25;;;;;;;10.00;100.00;100240.03;6284654;28;20526;-92
2023/04/29 02:59:30;;;;;;;32.22;17.58;;;;;;;9.91;100.00;100243.34;6281538;28;20506;-95
2023/04/29 03:02:32;;;;;;;32.85;18.42;;;;;;;9.87;100.00;100245.38;6270274;28;20063;-94
2023/04/29 03:05:35;;;;;;;40.08;18.77;;;;;;;9.87;100.00;100254.91;6271775;28;20068;-95
2023/04/29 03:08:37;;;;;;;37.15;18.92;;;;;;;9.82;100.00;100255.25;6273323;28;20213;-93
2023/04/29 03:11:39;;;;;;;40.33;19.88;;;;;;;9.80;100.00;100251.16;6278127;28;20043;-93
2023/04/29 03:14:41;;;;;;;35.75;19.05;;;;;;;9.76;100.00;100260.91;6281896;28;20048;-94
2023/04/29 03:17:45;;;;;;;33.67;18.45;;;;;;;9.72;100.00;100263.88;6284931;28;20561;-94
2023/04/29 03:20:47;;;;;;;33.97;19.50;;;;;;;9.62;100.00;100261.19;6282291;28;20055;-94
2023/04/29 03:23:49;;;;;;;46.08;18.98;;;;;;;9.68;100.00;100256.34;6302605;28;20039;-94
2023/04/29 03:26:59;;;;;;;30.85;19.05;;;;;;;9.57;100.00;100258.16;6285208;28;20693;-94
2023/04/29 03:30:02;;;;;;;27.58;17.63;;;;;;;9.46;100.00;100270.13;6276525;28;20182;-93
2023/04/29 03:33:05;;;;;;;32.13;19.67;;;;;;;9.48;100.00;100267.44;6273659;28;20068;-93
2023/04/29 03:36:07;;;;;;;31.67;18.75;;;;;;;9.51;100.00;100272.38;6275238;28;20441;-93
2023/04/29 03:39:13;;;;;;;30.02;19.08;;;;;;;9.42;100.00;100270.53;6294396;28;20125;-93
2023/04/29 03:42:16;;;;;;;29.80;19.00;;;;;;;9.45;100.00;100280.63;6287856;28;20047;-93
2023/04/29 03:45:19;;;;;;;31.15;18.80;;;;;;;9.41;100.00;100276.63;6285127;28;20484;-93
2023/04/29 03:48:21;;;;;;;31.48;19.85;;;;;;;9.39;100.00;100279.34;6295716;28;20048;-93
2023/04/29 03:51:24;;;;;;;32.63;20.55;;;;;;;9.34;100.00;100286.63;6282336;28;20545;-91
2023/04/29 03:54:31;;;;;;;33.92;20.33;;;;;;;9.30;100.00;100287.78;6290042;28;20510;-91
2023/04/29 03:57:33;;;;;;;31.10;20.83;;;;;;;9.33;100.00;100300.47;6275317;28;20609;-91
2023/04/29 04:00:35;;;;;;;37.88;22.02;;;;;;;9.19;100.00;100296.38;6284191;28;20338;-91
2023/04/29 04:03:42;;;;;;;37.95;22.55;;;;;;;9.25;100.00;100288.13;6278029;28;20559;-94
2023/04/29 04:06:50;;;;;;;37.08;22.23;;;;;;;9.21;100.00;100302.22;6284054;28;20094;-91
2023/04/29 04:09:54;;;;;;;37.97;22.13;;;;;;;9.19;100.00;100306.72;6284736;28;20574;-91
2023/04/29 04:12:56;;;;;;;42.38;24.73;;;;;;;9.18;100.00;100312.78;6299166;28;20051;-91
2023/04/29 04:15:58;;;;;;;49.60;26.60;;;;;;;9.14;100.00;100326.91;6278262;28;20055;-91
2023/04/29 04:19:00;;;;;;;55.78;29.40;;;;;;;9.12;100.00;100333.09;6263205;28;20040;-91
2023/04/29 04:22:02;;;;;;;60.65;30.70;;;;;;;9.15;100.00;100335.47;6288440;28;20331;-91
2023/04/29 04:25:06;;;;;;;58.22;29.17;;;;;;;9.12;100.00;100339.09;6290355;28;20044;-90
2023/04/29 04:28:08;;;;;;;60.00;30.45;;;;;;;9.12;100.00;100333.94;6288094;28;20198;-91
2023/04/29 04:31:29;;;;;;;50.65;27.80;;;;;;;9.17;100.00;100336.16;6299823;28;20417;-90
2023/04/29 04:34:32;;;;;;;61.55;30.27;;;;;;;9.20;100.00;100347.06;6272122;28;20041;-90
2023/04/29 04:37:35;;;;;;;53.95;28.15;;;;;;;9.18;100.00;100348.94;6277859;28;20029;-90
2023/04/29 04:40:42;;;;;;;57.22;28.08;;;;;;;9.17;100.00;100356.81;6297395;28;20049;-90
2023/04/29 04:43:57;;;;;;;55.58;28.63;;;;;;;9.22;100.00;100359.88;6282033;28;20078;-91
2023/04/29 04:47:22;;;;;;;52.05;27.15;;;;;;;9.32;100.00;100362.59;6263094;28;20275;-90
2023/04/29 04:50:35;;;;;;;53.30;29.35;;;;;;;9.27;100.00;100368.09;6275736;28;20541;-90
2023/04/29 04:53:38;;;;;;;55.47;29.15;;;;;;;9.26;100.00;100366.44;6260375;28;20450;-90
2023/04/29 04:56:43;;;;;;;61.33;29.67;;;;;;;9.33;100.00;100382.31;6280960;28;20048;-90
2023/04/29 04:59:46;;;;;;;58.75;30.23;;;;;;;9.35;100.00;100381.25;6285111;28;20047;-90
2023/04/29 05:02:48;;;;;;;65.72;30.63;;;;;;;9.29;100.00;100386.88;6284593;28;20052;-91
2023/04/29 05:05:58;;;;;;;71.03;35.58;;;;;;;9.19;100.00;100389.34;6286770;28;20048;-90
2023/04/29 05:09:02;;;;;;;69.97;35.65;;;;;;;9.14;100.00;100388.03;6287221;28;20131;-90
2023/04/29 05:12:05;;;;;;;79.95;36.03;;;;;;;9.10;100.00;100399.53;6287836;28;20045;-90
2023/04/29 05:15:07;;;;;;;71.13;35.25;;;;;;;9.13;100.00;100400.13;6271455;28;20040;-90
2023/04/29 05:18:09;;;;;;;75.97;37.25;;;;;;;9.19;100.00;100399.69;6289931;28;20064;-89
2023/04/29 05:21:12;;;;;;;76.22;37.30;;;;;;;9.21;100.00;100410.69;6287744;28;20049;-90
2023/04/29 05:24:16;;;;;;;73.60;36.80;;;;;;;9.11;100.00;100414.91;6287027;28;20178;-90
2023/04/29 05:27:18;;;;;;;72.97;36.53;;;;;;;9.15;100.00;100420.69;6276822;28;20048;-90
2023/04/29 05:30:20;;;;;;;73.93;35.75;;;;;;;9.11;100.00;100424.41;6290009;28;20975;-90
2023/04/29 05:33:22;;;;;;;65.95;33.58;;;;;;;9.08;100.00;100422.88;6298075;28;20510;-90
2023/04/29 05:36:26;;;;;;;59.95;32.13;;;;;;;9.10;100.00;100440.84;6291615;28;20045;-89
2023/04/29 05:39:30;;;;;;;49.42;28.65;;;;;;;9.05;100.00;100433.44;6281047;28;20087;-90
2023/04/29 05:42:42;;;;;;;52.35;27.92;;;;;;;9.06;100.00;100433.31;6280573;28;20048;-90
2023/04/29 05:45:51;;;;;;;51.30;27.90;;;;;;;9.04;100.00;100445.53;6292031;28;20529;-90
2023/04/29 05:48:53;;;;;;;46.95;26.88;;;;;;;8.96;100.00;100442.69;6287530;28;21599;-90
2023/04/29 05:51:56;;;;;;;49.03;25.77;;;;;;;8.97;100.00;100443.53;6292687;28;20059;-89
2023/04/29 05:54:58;;;;;;;43.58;24.98;;;;;;;8.96;100.00;100460.75;6289442;28;20414;-89
2023/04/29 05:58:00;;;;;;;41.05;24.40;;;;;;;8.90;100.00;100461.22;6269267;28;20608;-89
2023/04/29 06:01:02;;;;;;;43.65;23.98;;;;;;;8.94;100.00;100454.06;6288507;28;21121;-89
2023/04/29 06:04:05;;;;;;;39.65;23.55;;;;;;;8.91;100.00;100460.25;6279721;28;20422;-89
2023/04/29 06:07:26;;;;;;;43.65;23.08;;;;;;;8.95;100.00;100460.88;6295172;28;20143;-89
2023/04/29 06:10:40;;;;;;;40.35;22.75;;;;;;;9.09;100.00;100470.19;6292074;28;20550;-89
2023/04/29 06:13:43;;;;;;;39.85;22.67;;;;;;;9.14;100.00;100468.91;6286232;28;20159;-90
2023/04/29 06:16:46;;;;;;;37.92;22.15;;;;;;;9.16;100.00;100474.78;6294158;28;20387;-89
2023/04/29 06:19:48;;;;;;;40.28;21.00;;;;;;;9.16;100.00;100481.69;6289171;28;20040;-89
2023/04/29 06:22:50;;;;;;;38.13;22.65;;;;;;;9.09;100.00;100486.47;6295351;28;20406;-89
2023/04/29 06:25:51;;;;;;;36.22;20.30;;;;;;;9.12;100.00;100494.03;6278965;28;20045;-89
2023/04/29 06:28:55;;;;;;;41.72;21.55;;;;;;;9.23;100.00;100493.22;6295663;28;20429;-90
2023/04/29 06:31:57;;;;;;;38.67;21.10;;;;;;;9.30;100.00;100497.00;6295997;28;20043;-89
2023/04/29 06:35:00;;;;;;;35.05;21.42;;;;;;;9.30;100.00;100491.84;6293464;28;20044;-89
2023/04/29 06:38:10;;;;;;;31.65;18.88;;;;;;;9.38;100.00;100494.66;6293096;28;20098;-89
2023/04/29 06:41:39;;;;;;;36.47;21.55;;;;;;;9.47;100.00;100511.25;6283766;28;20646;-89
2023/04/29 06:45:07;;;;;;;34.10;20.48;;;;;;;9.49;100.00;100517.97;6296016;28;20081;-89
2023/04/29 06:48:13;;;;;;;37.53;21.85;;;;;;;9.48;100.00;100520.66;6304816;28;20051;-89
2023/04/29 06:51:21;;;;;;;34.95;20.50;;;;;;;9.45;100.00;100537.19;6285900;28;20044;-89
2023/04/29 06:54:26;;;;;;;39.78;22.33;;;;;;;9.46;100.00;100538.00;6294889;28;20037;-89
2023/04/29 06:57:28;;;;;;;30.98;19.63;;;;;;;9.56;100.00;100538.16;6285360;28;20040;-89
2023/04/29 07:00:30;;;;;;;34.20;19.83;;;;;;;9.73;100.00;100542.06;6269194;28;20044;-89
2023/04/29 07:03:32;;;;;;;33.88;19.60;;;;;;;9.74;100.00;100546.28;6298408;28;20129;-89
2023/04/29 07:06:34;;;;;;;32.75;18.80;;;;;;;9.79;100.00;100552.78;6284202;28;20486;-88
2023/04/29 07:09:36;;;;;;;32.05;18.90;;;;;;;9.81;100.00;100568.16;6292829;28;20044;-89
2023/04/29 07:12:38;;;;;;;25.95;17.02;;;;;;;9.80;100.00;100571.69;6295849;28;20048;-89
2023/04/29 07:15:41;;;;;;;30.70;18.90;;;;;;;9.91;100.00;100579.47;6278880;28;20044;-89
2023/04/29 07:18:43;;;;;;;26.25;17.38;;;;;;;10.04;100.00;100579.38;6281823;28;20483;-89
2023/04/29 07:21:45;;;;;;;27.23;16.67;;;;;;;10.29;100.00;100580.94;6284194;28;20448;-89
2023/04/29 07:24:46;;;;;;;24.45;16.05;;;;;;;10.45;100.00;100583.16;6284703;28;20764;-90
2023/04/29 07:27:48;;;;;;;24.13;15.85;;;;;;;10.49;100.00;100595.75;6279718;28;20052;-89
2023/04/29 07:30:51;;;;;;;23.88;15.40;;;;;;;10.62;100.00;100594.78;6284484;28;20170;-90
2023/04/29 07:33:54;;;;;;;21.42;15.30;;;;;;;10.99;100.00;100600.47;6297159;28;21956;-90
2023/04/29 07:36:56;;;;;;;24.05;15.60;;;;;;;11.23;100.00;100602.91;6293537;28;20052;-90
2023/04/29 07:39:58;;;;;;;20.73;14.50;;;;;;;11.35;100.00;100620.03;6283213;28;20414;-91
2023/04/29 07:43:03;;;;;;;18.65;13.40;;;;;;;11.36;100.00;100611.31;6270761;28;20071;-90
2023/04/29 07:46:05;;;;;;;18.02;13.52;;;;;;;11.10;100.00;100613.38;6284783;28;20496;-90
2023/04/29 07:49:09;;;;;;;19.65;12.75;;;;;;;11.27;100.00;100624.19;6281778;28;20555;-90
2023/04/29 07:52:11;;;;;;;16.77;12.00;;;;;;;11.67;100.00;100628.72;6288196;28;20573;-90
2023/04/29 07:55:14;;;;;;;18.70;12.38;;;;;;;11.83;100.00;100629.94;6278300;28;20044;-89
2023/04/29 07:58:17;;;;;;;20.70;13.40;;;;;;;11.77;100.00;100635.63;6294541;28;20123;-89
2023/04/29 08:01:20;;;;;;;18.25;13.43;;;;;;;11.65;100.00;100636.63;6284233;28;20040;-89
2023/04/29 08:04:23;;;;;;;15.88;11.77;;;;;;;11.58;100.00;100643.28;6288851;28;20680;-89
2023/04/29 08:07:33;;;;;;;16.40;11.95;;;;;;;11.60;100.00;100652.56;6291423;28;20043;-89
2023/04/29 08:10:39;;;;;;;17.02;11.00;;;;;;;11.87;100.00;100648.69;6280118;28;20243;-89
2023/04/29 08:13:43;;;;;;;18.65;11.10;;;;;;;12.16;100.00;100661.03;6279837;28;20154;-89
2023/04/29 08:16:45;;;;;;;17.95;11.68;;;;;;;12.39;100.00;100659.09;6275993;28;20044;-89
2023/04/29 08:19:47;;;;;;;14.35;10.32;;;;;;;12.49;100.00;100658.16;6284664;28;20052;-89
2023/04/29 08:22:52;;;;;;;15.80;11.38;;;;;;;12.59;100.00;100660.81;6290465;28;20040;-89
2023/04/29 08:25:55;;;;;;;16.45;11.13;;;;;;;12.79;100.00;100666.06;6281013;28;20413;-89
2023/04/29 08:28:57;;;;;;;12.63;10.27;;;;;;;12.86;100.00;100680.19;6280849;28;20047;-89
2023/04/29 08:31:59;;;;;;;13.85;9.68;;;;;;;12.92;100.00;100664.06;6289253;28;20608;-90
2023/04/29 08:35:02;;;;;;;13.48;10.40;;;;;;;13.02;100.00;100671.88;6283484;28;20040;-90
2023/04/29 08:38:05;;;;;;;15.73;10.40;;;;;;;13.13;100.00;100677.78;6275138;28;20076;-90
2023/04/29 08:41:15;;;;;;;16.40;11.20;;;;;;;13.35;100.00;100681.13;6286724;28;20516;-90
2023/04/29 08:44:17;;;;;;;15.10;10.93;;;;;;;13.54;100.00;100677.75;6290333;28;20550;-90
2023/04/29 08:47:19;;;;;;;15.02;9.75;;;;;;;13.51;100.00;100686.59;6297107;28;20059;-90
2023/04/29 08:50:23;;;;;;;14.23;10.40;;;;;;;13.50;100.00;100694.56;6285953;28;20040;-90
2023/04/29 08:53:25;;;;;;;12.85;9.60;;;;;;;13.47;100.00;100690.47;6288163;28;20493;-90
2023/04/29 08:56:29;;;;;;;12.93;9.52;;;;;;;13.59;100.00;100698.97;6289993;28;20040;-90
2023/04/29 08:59:31;;;;;;;15.95;10.52;;;;;;;13.48;100.00;100696.47;6292418;28;20363;-90
2023/04/29 09:02:42;;;;;;;14.10;9.85;;;;;;;13.11;100.00;100699.66;6285350;28;20028;-90
2023/04/29 09:05:47;;;;;;;12.98;8.77;;;;;;;12.82;100.00;100709.97;6284652;28;20545;-90
2023/04/29 09:08:50;;;;;;;10.60;9.27;;;;;;;12.79;100.00;100708.44;6282147;28;21206;-90
2023/04/29 09:11:54;;;;;;;14.05;9.38;;;;;;;12.59;100.00;100704.94;6283997;28;20040;-91
2023/04/29 09:14:56;;;;;;;15.43;9.25;;;;;;;12.42;100.00;100715.94;6283601;28;20275;-90
2023/04/29 09:18:01;;;;;;;11.50;9.40;;;;;;;12.44;100.00;100729.63;6288175;28;20037;-90
2023/04/29 09:21:16;;;;;;;12.73;8.65;;;;;;;12.74;100.00;100718.41;6283411;28;20054;-91
2023/04/29 09:24:28;;;;;;;13.02;9.32;;;;;;;13.20;100.00;100724.06;6287306;28;20502;-90
2023/04/29 09:27:30;;;;;;;12.02;9.18;;;;;;;13.34;100.00;100728.88;6285205;28;20051;-91
2023/04/29 09:30:45;;;;;;;11.60;9.40;;;;;;;13.23;100.00;100732.38;6302093;28;20040;-91
2023/04/29 09:33:57;;;;;;;13.35;8.77;;;;;;;12.91;100.00;100743.78;6285842;28;20485;-91
2023/04/29 09:36:59;;;;;;;11.98;8.60;;;;;;;12.45;100.00;100745.06;6287386;28;20044;-92
2023/04/29 09:40:01;;;;;;;13.60;9.55;;;;;;;12.20;100.00;100738.50;6285362;28;20048;-92
2023/04/29 09:43:12;;;;;;;10.98;8.95;;;;;;;11.98;100.00;100741.22;6285486;28;20040;-91
2023/04/29 09:46:15;;;;;;;15.30;9.55;;;;;;;11.83;100.00;100754.44;6284299;28;20037;-91
2023/04/29 09:49:25;;;;;;;13.82;9.05;;;;;;;11.73;100.00;100753.53;6278659;28;20033;-91
2023/04/29 09:52:41;;;;;;;19.90;11.18;;;;;;;11.84;100.00;100766.44;6277732;28;20154;-91
2023/04/29 09:56:02;;;;;;;15.18;9.77;;;;;;;11.88;100.00;100758.47;6278570;28;20040;-92
2023/04/29 09:59:08;;;;;;;13.75;10.38;;;;;;;11.94;100.00;100760.56;6289638;28;20093;-91
2023/04/29 10:02:17;;;;;;;15.95;10.30;;;;;;;12.17;100.00;100766.47;6286284;28;20142;-92
2023/04/29 10:05:21;;;;;;;14.35;10.23;;;;;;;12.46;100.00;100766.66;6295145;28;20076;-91
2023/04/29 10:08:28;;;;;;;15.02;11.20;;;;;;;12.74;100.00;100769.53;6278929;28;20124;-91
2023/04/29 10:11:30;;;;;;;14.32;11.02;;;;;;;13.11;100.00;100762.84;6286388;28;20800;-90
2023/04/29 10:14:42;;;;;;;14.88;11.05;;;;;;;13.43;100.00;100761.06;6296141;28;20592;-92
2023/04/29 10:18:17;;;;;;;13.45;10.82;;;;;;;13.75;100.00;100766.03;6292748;28;20063;-91
2023/04/29 10:21:30;;;;;;;15.57;10.93;;;;;;;13.92;100.00;100770.56;6305063;28;20049;-93
2023/04/29 10:24:36;;;;;;;14.93;11.27;;;;;;;14.03;100.00;100758.38;6273887;28;20041;-93
2023/04/29 10:27:39;;;;;;;13.07;10.02;;;;;;;13.98;100.00;100764.81;6281612;28;20501;-93
2023/04/29 10:30:49;;;;;;;13.90;9.63;;;;;;;13.92;100.00;100767.97;6286936;28;20086;-93
2023/04/29 10:33:55;;;;;;;16.65;10.68;;;;;;;13.67;100.00;100768.50;6278455;28;20048;-94
2023/04/29 10:36:58;;;;;;;14.75;10.88;;;;;;;13.30;100.00;100775.13;6280510;28;20402;-94
2023/04/29 10:40:39;;;;;;;14.77;9.32;;;;;;;13.25;100.00;100773.88;6295341;28;20048;-93
2023/04/29 10:43:41;;;;;;;13.23;9.45;;;;;;;13.64;100.00;100774.81;6283543;28;20156;-93
2023/04/29 10:46:43;;;;;;;12.82;9.77;;;;;;;13.81;100.00;100786.31;6285293;28;20549;-92
2023/04/29 10:50:04;;;;;;;15.40;10.50;;;;;;;13.68;100.00;100768.34;6287745;28;20259;-93
2023/04/29 10:53:06;;;;;;;;;;;;;;;13.92;100.00;100767.97;6287356;28;20577;-93
2023/04/29 10:56:15;;;;;;;14.98;8.80;;;;;;;14.07;100.00;100768.38;6286291;28;19948;-93
2023/04/29 10:59:40;;;;;;;11.73;8.73;;;;;;;14.20;100.00;100774.13;6284273;28;20063;-91
2023/04/29 11:02:43;;;;;;;11.63;8.25;;;;;;;14.77;100.00;100763.75;6291327;28;20042;-93
2023/04/29 11:05:45;;;;;;;13.70;7.63;;;;;;;15.20;100.00;100766.72;6282618;28;20036;-94
2023/04/29 11:08:47;;;;;;;12.15;7.72;;;;;;;15.34;100.00;100783.66;6279293;28;20051;-94
2023/04/29 11:12:05;;;;;;;10.63;7.63;;;;;;;15.32;100.00;100769.94;6288985;28;20148;-93
2023/04/29 11:15:09;;;;;;;12.02;9.40;;;;;;;15.24;100.00;100768.06;6270765;28;20041;-92
2023/04/29 11:18:11;;;;;;;11.15;8.23;;;;;;;14.93;100.00;100777.94;6282683;28;20518;-92
2023/04/29 11:21:14;;;;;;;9.23;7.60;;;;;;;14.74;100.00;100784.06;6281855;28;20048;-92
2023/04/29 11:24:16;;;;;;;10.50;7.88;;;;;;;14.79;100.00;100782.66;6291713;28;20056;-92
2023/04/29 11:27:23;;;;;;;10.90;7.97;;;;;;;14.90;100.00;100773.03;6272801;28;20077;-92
2023/04/29 11:30:28;;;;;;;10.63;8.18;;;;;;;14.99;100.00;100777.38;6279754;28;20051;-91
2023/04/29 11:33:31;;;;;;;9.77;8.38;;;;;;;15.06;100.00;100773.25;6259103;28;20056;-93
2023/04/29 11:36:35;;;;;;;13.32;9.05;;;;;;;14.76;100.00;100790.78;6286691;28;20051;-92
2023/04/29 11:39:37;;;;;;;10.77;8.32;;;;;;;14.61;100.00;100794.78;6289135;28;20056;-94
2023/04/29 11:42:48;;;;;;;10.30;8.30;;;;;;;14.97;100.00;100787.13;6280947;28;20041;-93
2023/04/29 11:45:52;;;;;;;12.40;7.63;;;;;;;15.42;100.00;100788.97;6284459;28;20081;-93
2023/04/29 11:48:58;;;;;;;10.05;7.13;;;;;;;15.47;100.00;100799.78;6286085;28;20443;-93
2023/04/29 11:52:01;;;;;;;11.80;6.63;;;;;;;15.42;100.00;100799.41;6283456;28;20218;-93
2023/04/29 11:55:07;;;;;;;8.77;7.00;;;;;;;15.74;100.00;100792.94;6289577;28;20039;-93
2023/04/29 11:58:11;;;;;;;10.48;7.13;;;;;;;15.86;100.00;100796.97;6277692;28;20045;-90
2023/04/29 12:01:13;;;;;;;12.05;8.55;;;;;;;15.94;100.00;100794.41;6277527;28;20047;-93
2023/04/29 12:04:18;;;;;;;11.20;8.15;;;;;;;15.87;100.00;100803.81;6290912;28;20051;-94
2023/04/29 12:07:24;;;;;;;11.55;7.65;;;;;;;15.60;100.00;100807.25;6278290;28;20048;-93
2023/04/29 12:10:28;;;;;;;11.27;7.18;;;;;;;15.63;100.00;100807.81;6284320;28;20425;-95
2023/04/29 12:13:36;;;;;;;8.85;6.75;;;;;;;15.78;100.00;100796.91;6283432;28;20067;-94
2023/04/29 12:16:41;;;;;;;8.27;6.88;;;;;;;15.61;100.00;100809.72;6276653;28;20081;-92
2023/04/29 12:19:46;;;;;;;9.55;6.82;;;;;;;15.40;100.00;100798.72;6288349;28;20097;-94
2023/04/29 12:22:49;;;;;;;10.02;6.53;;;;;;;15.33;100.00;100802.88;6294482;28;20049;-94
2023/04/29 12:25:53;;;;;;;9.32;7.13;;;;;;;15.36;100.00;100806.03;6283719;28;20485;-92
2023/04/29 12:29:02;;;;;;;9.18;6.03;;;;;;;15.07;100.00;100813.97;6280855;28;20044;-93
2023/04/29 12:32:06;;;;;;;7.07;5.78;;;;;;;14.80;100.00;100807.75;6276325;28;20497;-94
2023/04/29 12:35:21;;;;;;;9.32;5.20;;;;;;;14.85;100.00;100800.31;6287241;28;20037;-93
2023/04/29 12:38:43;;;;;;;7.45;5.40;;;;;;;15.00;100.00;100810.28;6284028;28;20044;-93
2023/04/29 12:42:04;;;;;;;8.30;6.10;;;;;;;15.15;100.00;100811.47;6286312;28;20040;-93
2023/04/29 12:45:07;;;;;;;10.75;6.32;;;;;;;15.52;100.00;100810.59;6291301;28;20043;-93
2023/04/29 12:48:11;;;;;;;10.77;7.10;;;;;;;15.99;100.00;100826.13;6287390;28;20380;-93
2023/04/29 12:51:33;;;;;;;10.43;6.32;;;;;;;15.87;100.00;100809.03;6299925;28;20036;-94
2023/04/29 12:54:42;;;;;;;7.88;5.63;;;;;;;15.86;100.00;100820.44;6290301;28;20041;-94
2023/04/29 12:57:44;;;;;;;8.25;5.78;;;;;;;15.39;100.00;100816.16;6287833;28;20040;-94
2023/04/29 13:00:47;;;;;;;8.10;5.90;;;;;;;15.14;100.00;100817.66;6279950;28;20100;-93
2023/04/29 13:03:50;;;;;;;6.82;4.95;;;;;;;15.07;100.00;100822.63;6279991;28;20238;-93
2023/04/29 13:06:58;;;;;;;7.63;5.60;;;;;;;15.04;100.00;100829.91;6284859;28;20056;-94
2023/04/29 13:10:00;;;;;;;8.98;5.72;;;;;;;14.94;100.00;100829.13;6284341;28;20068;-93
2023/04/29 13:13:02;;;;;;;6.97;5.70;;;;;;;14.84;100.00;100823.94;6287262;28;20047;-93
2023/04/29 13:16:05;;;;;;;6.72;5.45;;;;;;;14.85;100.00;100828.19;6286055;28;20037;-93
2023/04/29 13:19:06;;;;;;;6.65;4.10;;;;;;;14.99;100.00;100832.13;6280546;28;20063;-92
2023/04/29 13:22:29;;;;;;;8.52;4.55;;;;;;;15.15;100.00;100813.25;6277120;28;20033;-93
2023/04/29 13:25:32;;;;;;;6.13;4.45;;;;;;;15.34;100.00;100825.41;6295808;28;20053;-94
2023/04/29 13:28:34;;;;;;;5.78;4.45;;;;;;;15.53;100.00;100825.31;6287109;28;20055;-94
2023/04/29 13:31:36;;;;;;;9.85;4.82;;;;;;;15.70;100.00;100824.53;6285855;28;20041;-93
2023/04/29 13:34:41;;;;;;;6.90;4.85;;;;;;;15.88;100.00;100824.56;6287719;28;20033;-93
2023/04/29 13:37:44;;;;;;;7.53;4.70;;;;;;;15.89;100.00;100820.16;6284771;28;20036;-94
2023/04/29 13:40:46;;;;;;;6.47;4.60;;;;;;;15.98;100.00;100836.72;6282970;28;20052;-94
2023/04/29 13:43:52;;;;;;;6.95;4.78;;;;;;;16.07;100.00;100839.28;6286536;28;20089;-94
2023/04/29 13:46:59;;;;;;;4.85;4.00;;;;;;;16.02;100.00;100838.88;6277172;28;20036;-93
2023/04/29 13:50:03;;;;;;;8.90;4.97;;;;;;;15.97;100.00;100841.09;6280483;28;21069;-93
2023/04/29 13:53:07;;;;;;;6.82;4.63;;;;;;;15.82;100.00;100853.84;6289539;28;20051;-92
2023/04/29 13:56:12;;;;;;;7.63;4.68;;;;;;;15.54;100.00;100850.41;6281431;28;20657;-94
2023/04/29 13:59:17;;;;;;;7.35;5.38;;;;;;;15.10;100.00;100852.78;6280896;28;20459;-93
2023/04/29 14:02:22;;;;;;;8.60;5.65;;;;;;;15.01;100.00;100851.06;6294080;28;20052;-93